createdAt,value
2023-02-21T00:00:22.468Z,44.03
2023-02-21T00:03:08.187Z,44.67
2023-02-21T00:05:54.378Z,45.17
2023-02-21T00:08:44.512Z,43.83
2023-02-21T00:11:33.515Z,44.50
2023-02-21T00:14:22.438Z,44.15
2023-02-21T00:17:17.653Z,42.35
2023-02-21T00:23:10.216Z,47.40
2023-02-21T00:25:58.256Z,48.53
2023-02-21T00:28:44.862Z,56.10
2023-02-21T00:31:35.674Z,44.10
2023-02-21T00:34:21.822Z,46.33
2023-02-21T00:37:14.109Z,45.67
2023-02-21T00:40:03.210Z,46.78
2023-02-21T00:43:06.845Z,40.03
2023-02-21T00:45:52.733Z,43.35
2023-02-21T00:48:49.213Z,48.80
2023-02-21T00:51:43.328Z,57.30
2023-02-21T00:54:30.582Z,41.25
2023-02-21T00:57:23.990Z,46.67
2023-02-21T01:00:15.532Z,48.85
2023-02-21T01:03:04.699Z,46.15
2023-02-21T01:05:52.861Z,47.78
2023-02-21T01:08:40.066Z,52.13
2023-02-21T01:11:30.015Z,43.58
2023-02-21T01:14:23.044Z,49.15
2023-02-21T01:17:13.440Z,48.03
2023-02-21T01:22:58.554Z,46.20
2023-02-21T01:25:49.636Z,39.50
2023-02-21T01:31:06.152Z,46.25
2023-02-21T01:33:58.028Z,42.40
2023-02-21T01:36:44.379Z,42.17
2023-02-21T01:39:37.928Z,53.33
2023-02-21T01:42:28.465Z,42.90
2023-02-21T01:45:36.109Z,46.60
2023-02-21T01:48:22.760Z,45.78
2023-02-21T01:51:11.606Z,43.28
2023-02-21T01:54:03.715Z,40.55
2023-02-21T01:56:51.080Z,39.72
2023-02-21T01:59:38.131Z,46.28
2023-02-21T02:02:33.893Z,43.23
2023-02-21T02:05:24.332Z,43.22
2023-02-21T02:08:14.731Z,49.05
2023-02-21T02:11:04.153Z,40.38
2023-02-21T02:13:56.815Z,47.13
2023-02-21T02:16:44.817Z,50.42
2023-02-21T02:19:21.713Z,41.45
2023-02-21T02:21:51.954Z,40.72
2023-02-21T02:24:48.257Z,43.78
2023-02-21T02:27:38.931Z,47.53
2023-02-21T02:30:08.577Z,52.88
2023-02-21T02:32:48.755Z,41.63
2023-02-21T02:35:29.098Z,40.85
2023-02-21T02:38:01.559Z,41.15
2023-02-21T02:40:33.725Z,43.10
2023-02-21T02:43:28.375Z,43.10
2023-02-21T02:46:10.260Z,45.28
2023-02-21T02:48:37.368Z,44.05
2023-02-21T02:51:11.615Z,41.97
2023-02-21T02:53:45.187Z,40.67
2023-02-21T02:56:21.066Z,43.47
2023-02-21T03:01:35.696Z,38.45
2023-02-21T03:04:20.080Z,41.33
2023-02-21T03:07:05.854Z,38.90
2023-02-21T03:09:36.023Z,44.38
2023-02-21T03:12:16.573Z,37.42
2023-02-21T03:18:08.267Z,32.38
2023-02-21T03:20:48.120Z,35.05
2023-02-21T03:23:19.447Z,37.08
2023-02-21T03:26:40.972Z,32.17
2023-02-21T03:29:13.902Z,37.92
2023-02-21T03:31:51.572Z,38.08
2023-02-21T03:34:24.443Z,31.17
2023-02-21T03:36:51.772Z,33.35
2023-02-21T03:39:26.622Z,33.55
2023-02-21T03:41:56.657Z,35.72
2023-02-21T03:44:27.456Z,39.95
2023-02-21T03:46:57.734Z,31.23
2023-02-21T03:49:27.897Z,35.28
2023-02-21T03:51:57.621Z,35.22
2023-02-21T03:54:25.571Z,34.37
2023-02-21T03:56:55.583Z,37.40
2023-02-21T03:59:30.142Z,35.75
2023-02-21T04:01:59.537Z,30.75
2023-02-21T04:04:29.427Z,32.88
2023-02-21T04:06:59.147Z,37.83
2023-02-21T04:09:27.003Z,30.67
2023-02-21T04:11:59.302Z,35.53
2023-02-21T04:14:30.786Z,32.35
2023-02-21T04:16:59.510Z,40.38
2023-02-21T04:19:29.238Z,37.88
2023-02-21T04:21:57.045Z,43.55
2023-02-21T04:24:29.339Z,38.33
2023-02-21T04:27:05.996Z,39.20
2023-02-21T04:29:35.918Z,43.72
2023-02-21T04:32:13.074Z,39.00
2023-02-21T04:34:40.569Z,40.45
2023-02-21T04:37:18.614Z,44.28
2023-02-21T04:39:48.256Z,46.85
2023-02-21T04:42:19.409Z,47.70
2023-02-21T04:44:55.014Z,43.83
2023-02-21T04:47:34.707Z,50.70
2023-02-21T04:50:03.289Z,44.17
2023-02-21T04:52:36.575Z,47.88
2023-02-21T04:55:08.958Z,50.42
2023-02-21T04:57:41.663Z,42.00
2023-02-21T05:00:14.388Z,47.70
2023-02-21T05:02:43.731Z,49.45
2023-02-21T05:05:12.912Z,44.92
2023-02-21T05:07:46.808Z,46.83
2023-02-21T05:10:17.732Z,52.75
2023-02-21T05:12:47.343Z,50.17
2023-02-21T05:15:25.226Z,58.63
2023-02-21T05:17:55.717Z,52.38
2023-02-21T05:20:28.574Z,45.25
2023-02-21T05:23:11.709Z,48.70
2023-02-21T05:25:40.436Z,51.05
2023-02-21T05:28:11.069Z,45.95
2023-02-21T05:33:15.830Z,59.22
2023-02-21T05:35:46.878Z,55.63
2023-02-21T05:38:17.326Z,49.80
2023-02-21T05:40:50.102Z,60.85
2023-02-21T05:43:29.073Z,54.45
2023-02-21T05:46:03.106Z,63.15
2023-02-21T05:48:41.954Z,50.65
2023-02-21T05:51:11.855Z,55.28
2023-02-21T05:53:44.098Z,57.80
2023-02-21T05:56:14.422Z,61.53
2023-02-21T05:58:48.036Z,57.17
2023-02-21T06:01:32.598Z,63.42
2023-02-21T06:04:02.221Z,63.38
2023-02-21T06:06:29.563Z,62.30
2023-02-21T06:08:59.184Z,57.22
2023-02-21T06:11:29.197Z,54.17
2023-02-21T06:14:08.983Z,69.95
2023-02-21T06:16:37.706Z,58.53
2023-02-21T06:19:07.118Z,64.30
2023-02-21T06:21:37.032Z,56.42
2023-02-21T06:24:07.972Z,62.83
2023-02-21T06:26:39.266Z,59.33
2023-02-21T06:29:06.769Z,53.45
2023-02-21T06:31:42.260Z,59.67
2023-02-21T06:34:09.617Z,63.50
2023-02-21T06:36:38.998Z,56.58
2023-02-21T06:39:08.518Z,60.17
2023-02-21T06:41:38.623Z,57.35
2023-02-21T06:44:05.961Z,55.28
2023-02-21T06:46:35.556Z,54.88
2023-02-21T06:49:04.218Z,60.92
2023-02-21T06:51:36.441Z,60.13
2023-02-21T06:54:12.941Z,52.80
2023-02-21T06:56:41.660Z,53.20
2023-02-21T06:59:13.235Z,55.92
2023-02-21T07:01:45.174Z,59.30
2023-02-21T07:04:15.218Z,53.53
2023-02-21T07:06:52.789Z,60.58
2023-02-21T07:09:28.512Z,50.30
2023-02-21T07:11:55.749Z,56.88
2023-02-21T07:14:26.442Z,52.97
2023-02-21T07:16:57.559Z,53.97
2023-02-21T07:19:32.371Z,54.63
2023-02-21T07:22:04.163Z,55.08
2023-02-21T07:24:31.405Z,50.75
2023-02-21T07:27:01.837Z,59.05
2023-02-21T07:32:20.094Z,55.13
2023-02-21T07:34:47.195Z,50.72
2023-02-21T07:37:36.464Z,53.85
2023-02-21T07:40:18.753Z,50.75
2023-02-21T07:42:52.475Z,49.20
2023-02-21T07:45:24.670Z,49.88
2023-02-21T07:48:17.243Z,54.92
2023-02-21T07:50:58.423Z,47.90
2023-02-21T07:53:34.156Z,41.88
2023-02-21T07:56:11.800Z,43.53
2023-02-21T07:58:44.255Z,46.65
2023-02-21T08:01:13.381Z,43.55
2023-02-21T08:03:51.993Z,48.22
2023-02-21T08:06:19.327Z,58.60
2023-02-21T08:08:46.646Z,44.70
2023-02-21T08:11:19.068Z,43.95
2023-02-21T08:13:58.609Z,40.25
2023-02-21T08:16:34.504Z,50.05
2023-02-21T08:19:09.232Z,39.58
2023-02-21T08:21:39.059Z,43.53
2023-02-21T08:24:06.521Z,43.72
2023-02-21T08:26:42.292Z,37.63
2023-02-21T08:29:11.053Z,40.20
2023-02-21T08:31:48.980Z,40.90
2023-02-21T08:34:18.962Z,38.35
2023-02-21T08:37:05.328Z,37.38
2023-02-21T08:39:36.550Z,33.83
2023-02-21T08:42:07.141Z,33.17
2023-02-21T08:47:04.844Z,37.17
2023-02-21T08:52:06.872Z,32.38
2023-02-21T08:54:36.166Z,29.88
2023-02-21T08:57:07.820Z,29.65
2023-02-21T08:59:50.641Z,27.90
2023-02-21T09:02:19.204Z,30.50
2023-02-21T09:05:01.546Z,34.85
2023-02-21T09:07:31.170Z,32.17
2023-02-21T09:10:01.348Z,34.03
2023-02-21T09:12:40.145Z,28.02
2023-02-21T09:15:38.091Z,33.15
2023-02-21T09:18:14.752Z,28.77
2023-02-21T09:20:53.946Z,30.98
2023-02-21T09:23:24.824Z,30.40
2023-02-21T09:25:57.172Z,33.25
2023-02-21T09:28:26.765Z,36.03
2023-02-21T09:30:57.001Z,34.50
2023-02-21T09:33:25.313Z,37.55
2023-02-21T09:35:54.168Z,32.95
2023-02-21T09:38:21.461Z,30.80
2023-02-21T09:40:56.092Z,38.00
2023-02-21T09:43:33.293Z,30.58
2023-02-21T09:46:03.127Z,29.67
2023-02-21T09:48:30.441Z,32.45
2023-02-21T09:50:59.332Z,33.28
2023-02-21T09:53:32.109Z,32.33
2023-02-21T09:56:01.280Z,29.73
2023-02-21T09:58:30.170Z,31.27
2023-02-21T10:01:07.477Z,29.08
2023-02-21T10:04:00.623Z,32.22
2023-02-21T10:06:30.722Z,36.10
2023-02-21T10:09:00.727Z,31.95
2023-02-21T10:11:42.394Z,40.70
2023-02-21T10:14:18.710Z,35.92
2023-02-21T10:16:48.915Z,35.97
2023-02-21T10:19:29.056Z,32.17
2023-02-21T10:21:58.793Z,31.98
2023-02-21T10:24:26.602Z,38.92
2023-02-21T10:26:59.001Z,37.53
2023-02-21T10:29:28.022Z,38.67
2023-02-21T10:32:02.439Z,33.00
2023-02-21T10:34:30.744Z,30.17
2023-02-21T10:37:00.073Z,39.70
2023-02-21T10:39:40.172Z,31.42
2023-02-21T10:42:10.085Z,37.95
2023-02-21T10:44:37.395Z,31.23
2023-02-21T10:47:21.835Z,35.80
2023-02-21T10:50:01.248Z,27.05
2023-02-21T10:52:28.490Z,33.08
2023-02-21T10:55:11.884Z,30.15
2023-02-21T10:57:45.906Z,28.35
2023-02-21T11:00:28.202Z,26.63
2023-02-21T11:02:57.184Z,29.23
2023-02-21T11:05:24.850Z,29.58
2023-02-21T11:08:03.051Z,29.45
2023-02-21T11:10:31.951Z,27.60
2023-02-21T11:13:02.935Z,28.90
2023-02-21T11:15:30.208Z,27.48
2023-02-21T11:18:05.091Z,28.83
2023-02-21T11:20:32.705Z,24.50
2023-02-21T11:22:59.926Z,26.00
2023-02-21T11:25:27.175Z,25.00
2023-02-21T11:28:05.168Z,29.02
2023-02-21T11:33:01.224Z,22.80
2023-02-21T11:35:31.145Z,23.67
2023-02-21T11:38:00.421Z,22.35
2023-02-21T11:40:29.347Z,22.33
2023-02-21T11:43:17.895Z,21.13
2023-02-21T11:45:59.535Z,22.70
2023-02-21T11:48:32.772Z,22.42
2023-02-21T11:51:02.069Z,19.90
2023-02-21T11:53:35.483Z,24.00
2023-02-21T11:56:08.502Z,21.40
2023-02-21T11:58:38.367Z,18.90
2023-02-21T12:01:08.934Z,20.13
2023-02-21T12:03:45.144Z,23.67
2023-02-21T12:06:36.149Z,22.20
2023-02-21T12:09:08.544Z,23.58
2023-02-21T12:11:36.801Z,23.27
2023-02-21T12:14:10.951Z,16.13
2023-02-21T12:16:43.825Z,17.75
2023-02-21T12:19:19.549Z,16.90
2023-02-21T12:22:02.950Z,18.88
2023-02-21T12:24:43.788Z,16.63
2023-02-21T12:27:26.859Z,14.52
2023-02-21T12:30:03.594Z,19.50
2023-02-21T12:32:51.361Z,14.90
2023-02-21T12:35:37.855Z,17.85
2023-02-21T12:38:10.777Z,16.52
2023-02-21T12:40:49.679Z,20.05
2023-02-21T12:43:16.758Z,17.38
2023-02-21T12:45:44.032Z,20.75
2023-02-21T12:48:19.176Z,16.25
2023-02-21T12:50:50.212Z,20.92
2023-02-21T12:53:21.530Z,19.95
2023-02-21T12:55:58.131Z,23.10
2023-02-21T12:58:25.293Z,23.02
2023-02-21T13:00:55.546Z,23.35
2023-02-21T13:05:52.891Z,18.52
2023-02-21T13:08:40.271Z,23.55
2023-02-21T13:11:14.323Z,23.98
2023-02-21T13:13:41.506Z,20.98
2023-02-21T13:16:11.352Z,22.75
2023-02-21T13:18:41.258Z,18.92
2023-02-21T13:21:24.433Z,21.15
2023-02-21T13:23:53.432Z,21.02
2023-02-21T13:26:29.563Z,18.50
2023-02-21T13:28:57.411Z,25.10
2023-02-21T13:31:29.106Z,25.23
2023-02-21T13:33:58.139Z,27.35
2023-02-21T13:36:34.739Z,27.15
2023-02-21T13:39:01.807Z,26.58
2023-02-21T13:41:30.292Z,27.83
2023-02-21T13:43:58.608Z,24.23
2023-02-21T13:46:31.596Z,24.08
2023-02-21T13:49:17.412Z,24.13
2023-02-21T13:51:48.017Z,22.77
2023-02-21T13:54:21.726Z,22.42
2023-02-21T13:56:50.092Z,22.08
2023-02-21T13:59:23.345Z,26.27
2023-02-21T14:01:51.233Z,27.90
2023-02-21T14:04:56.943Z,23.45
2023-02-21T14:07:42.680Z,25.13
2023-02-21T14:10:20.601Z,27.55
2023-02-21T14:12:53.128Z,24.05
2023-02-21T14:15:21.722Z,22.13
2023-02-21T14:17:54.554Z,26.70
2023-02-21T14:20:23.450Z,24.48
2023-02-21T14:22:53.912Z,23.23
2023-02-21T14:25:24.318Z,25.80
2023-02-21T14:27:56.001Z,26.55
2023-02-21T14:30:25.328Z,27.30
2023-02-21T14:32:58.107Z,26.67
2023-02-21T14:35:47.519Z,24.30
2023-02-21T14:38:31.491Z,29.93
2023-02-21T14:41:11.922Z,24.42
2023-02-21T14:43:55.995Z,30.40
2023-02-21T14:46:26.553Z,27.05
2023-02-21T14:49:26.579Z,28.92
2023-02-21T14:54:25.499Z,26.42
2023-02-21T14:57:00.008Z,27.23
2023-02-21T14:59:36.428Z,31.33
2023-02-21T15:02:21.742Z,30.48
2023-02-21T15:04:56.515Z,28.80
2023-02-21T15:07:32.184Z,31.23
2023-02-21T15:10:13.381Z,30.33
2023-02-21T15:12:53.102Z,30.05
2023-02-21T15:15:33.952Z,26.13
2023-02-21T15:18:12.070Z,31.58
2023-02-21T15:20:42.293Z,25.80
2023-02-21T15:23:19.981Z,29.42
2023-02-21T15:26:00.882Z,32.08
2023-02-21T15:28:31.841Z,33.47
2023-02-21T15:31:06.309Z,32.22
2023-02-21T15:33:42.881Z,29.73
2023-02-21T15:36:29.068Z,26.15
2023-02-21T15:39:17.634Z,24.80
2023-02-21T15:44:50.849Z,25.90
2023-02-21T15:47:19.719Z,26.65
2023-02-21T15:49:56.953Z,28.17
2023-02-21T15:52:53.039Z,29.38
2023-02-21T15:55:25.984Z,30.60
2023-02-21T15:58:00.427Z,37.40
2023-02-21T16:00:29.288Z,29.40
2023-02-21T16:03:18.198Z,32.35
2023-02-21T16:05:45.453Z,32.13
2023-02-21T16:08:17.099Z,31.73
2023-02-21T16:10:49.986Z,28.15
2023-02-21T16:13:17.357Z,31.75
2023-02-21T16:15:44.531Z,38.70
2023-02-21T16:18:17.193Z,33.30
2023-02-21T16:20:59.523Z,37.15
2023-02-21T16:23:31.330Z,40.67
2023-02-21T16:26:09.379Z,49.67
2023-02-21T16:28:38.943Z,53.10
2023-02-21T16:31:12.556Z,51.07
2023-02-21T16:33:48.644Z,49.88
2023-02-21T16:36:31.699Z,59.10
2023-02-21T16:39:01.279Z,57.08
2023-02-21T16:41:32.141Z,53.30
2023-02-21T16:44:02.054Z,61.85
2023-02-21T16:46:31.236Z,62.40
2023-02-21T16:49:01.220Z,69.22
2023-02-21T16:51:36.071Z,63.38
2023-02-21T16:54:03.951Z,68.18
2023-02-21T16:56:31.162Z,71.65
2023-02-21T16:58:58.579Z,78.47
2023-02-21T17:01:29.910Z,81.72
2023-02-21T17:04:01.624Z,86.60
2023-02-21T17:06:29.392Z,85.18
2023-02-21T17:09:03.080Z,93.22
2023-02-21T17:11:32.684Z,88.80
2023-02-21T17:13:59.942Z,97.57
2023-02-21T17:16:30.298Z,92.63
2023-02-21T17:19:00.349Z,101.72
2023-02-21T17:21:28.522Z,98.05
2023-02-21T17:23:59.193Z,100.88
2023-02-21T17:26:28.793Z,93.75
2023-02-21T17:29:00.979Z,97.78
2023-02-21T17:31:28.279Z,106.43
2023-02-21T17:34:09.718Z,109.00
2023-02-21T17:36:36.905Z,110.35
2023-02-21T17:39:04.335Z,115.72
2023-02-21T17:41:39.695Z,108.93
2023-02-21T17:44:06.862Z,115.68
2023-02-21T17:46:37.417Z,116.57
2023-02-21T17:51:34.189Z,115.63
2023-02-21T17:54:04.520Z,109.93
2023-02-21T17:56:34.434Z,118.18
2023-02-21T17:59:07.207Z,116.57
2023-02-21T18:01:37.213Z,113.93
2023-02-21T18:04:06.244Z,116.70
2023-02-21T18:06:38.168Z,103.22
2023-02-21T18:09:09.267Z,114.25
2023-02-21T18:11:36.393Z,100.40
2023-02-21T18:14:11.621Z,99.22
2023-02-21T18:16:41.409Z,95.35
2023-02-21T18:19:13.836Z,97.68
2023-02-21T18:21:43.701Z,90.22
2023-02-21T18:24:17.809Z,91.78
2023-02-21T18:26:48.364Z,99.88
2023-02-21T18:29:15.602Z,104.47
2023-02-21T18:31:42.922Z,102.85
2023-02-21T18:34:13.200Z,84.68
2023-02-21T18:36:43.846Z,92.28
2023-02-21T18:41:47.827Z,86.78
2023-02-21T18:44:23.436Z,106.53
2023-02-21T18:46:55.717Z,88.57
2023-02-21T18:49:37.671Z,99.38
2023-02-21T18:52:08.905Z,97.22
2023-02-21T18:54:38.205Z,104.38
2023-02-21T18:57:05.378Z,98.47
2023-02-21T19:02:05.981Z,105.95
2023-02-21T19:04:33.830Z,96.63
2023-02-21T19:07:06.073Z,103.22
2023-02-21T19:09:36.685Z,103.75
2023-02-21T19:14:41.884Z,103.05
2023-02-21T19:17:09.397Z,91.68
2023-02-21T19:19:39.346Z,95.93
2023-02-21T19:22:08.253Z,98.15
2023-02-21T19:24:41.127Z,106.05
2023-02-21T19:27:10.699Z,109.55
2023-02-21T19:29:46.913Z,121.78
2023-02-21T19:32:19.132Z,101.18
2023-02-21T19:34:52.580Z,102.80
2023-02-21T19:37:25.172Z,95.28
2023-02-21T19:39:54.821Z,107.85
2023-02-21T19:42:22.008Z,104.10
2023-02-21T19:44:54.244Z,106.25
2023-02-21T19:47:33.068Z,104.22
2023-02-21T19:50:05.400Z,112.70
2023-02-21T19:52:32.622Z,114.18
2023-02-21T19:55:07.048Z,105.47
2023-02-21T19:57:36.874Z,108.97
2023-02-21T20:00:15.493Z,113.93
2023-02-21T20:02:48.340Z,108.18
2023-02-21T20:05:20.251Z,103.43
2023-02-21T20:07:49.373Z,119.40
2023-02-21T20:10:19.716Z,112.50
2023-02-21T20:12:53.359Z,110.60
2023-02-21T20:15:21.126Z,113.68
2023-02-21T20:17:53.718Z,107.95
2023-02-21T20:20:22.727Z,109.05
2023-02-21T20:22:53.165Z,118.20
2023-02-21T20:25:27.249Z,113.22
2023-02-21T20:27:57.308Z,112.38
2023-02-21T20:30:25.604Z,118.25
2023-02-21T20:32:55.472Z,120.80
2023-02-21T20:35:27.920Z,109.20
2023-02-21T20:37:55.150Z,116.55
2023-02-21T20:40:35.076Z,119.40
2023-02-21T20:43:02.252Z,118.50
2023-02-21T20:45:29.354Z,106.63
2023-02-21T20:48:02.994Z,106.63
2023-02-21T20:50:33.154Z,123.68
2023-02-21T20:53:01.257Z,106.05
2023-02-21T20:55:38.659Z,111.25
2023-02-21T20:58:06.213Z,113.82
2023-02-21T21:00:37.745Z,113.43
2023-02-21T21:03:15.030Z,113.00
2023-02-21T21:05:45.224Z,115.63
2023-02-21T21:08:16.350Z,113.85
2023-02-21T21:10:49.659Z,120.78
2023-02-21T21:13:24.740Z,118.93
2023-02-21T21:16:03.935Z,123.82
2023-02-21T21:18:33.436Z,124.95
2023-02-21T21:21:01.891Z,129.32
2023-02-21T21:23:31.822Z,124.65
2023-02-21T21:26:01.973Z,128.77
2023-02-21T21:28:38.745Z,131.07
2023-02-21T21:31:08.925Z,113.88
2023-02-21T21:33:51.686Z,123.25
2023-02-21T21:36:19.166Z,113.97
2023-02-21T21:38:47.073Z,114.18
2023-02-21T21:41:15.164Z,122.57
2023-02-21T21:43:45.416Z,128.80
2023-02-21T21:46:14.512Z,119.93
2023-02-21T21:48:45.185Z,130.70
2023-02-21T21:53:42.677Z,124.88
2023-02-21T21:56:17.428Z,142.32
2023-02-21T21:58:47.088Z,121.28
2023-02-21T22:01:18.807Z,129.93
2023-02-21T22:03:53.357Z,124.03
2023-02-21T22:06:20.524Z,109.32
2023-02-21T22:08:56.203Z,111.57
2023-02-21T22:11:25.953Z,119.47
2023-02-21T22:13:54.899Z,124.13
2023-02-21T22:16:26.864Z,121.38
2023-02-21T22:19:01.192Z,125.70
2023-02-21T22:21:30.547Z,123.05
2023-02-21T22:23:57.712Z,132.73
2023-02-21T22:26:38.564Z,125.03
2023-02-21T22:29:06.276Z,129.10
2023-02-21T22:31:36.755Z,132.60
2023-02-21T22:34:05.518Z,114.85
2023-02-21T22:36:42.002Z,126.85
2023-02-21T22:39:15.051Z,121.55
2023-02-21T22:41:48.581Z,130.63
2023-02-21T22:44:19.265Z,118.72
2023-02-21T22:47:02.123Z,114.65
2023-02-21T22:49:33.493Z,120.03
2023-02-21T22:52:10.482Z,118.22
2023-02-21T22:54:40.666Z,109.80
2023-02-21T22:57:16.320Z,119.63
2023-02-21T22:59:52.562Z,122.35
2023-02-21T23:02:22.531Z,126.90
2023-02-21T23:04:49.777Z,127.95
2023-02-21T23:07:20.759Z,129.07
2023-02-21T23:09:52.631Z,132.13
2023-02-21T23:12:23.529Z,137.60
2023-02-21T23:14:54.062Z,138.82
2023-02-21T23:17:23.764Z,135.32
2023-02-21T23:19:53.866Z,142.15
2023-02-21T23:22:25.121Z,135.73
2023-02-21T23:24:54.856Z,134.77
2023-02-21T23:27:22.051Z,136.68
2023-02-21T23:29:55.660Z,137.07
2023-02-21T23:32:25.292Z,140.52
2023-02-21T23:35:07.042Z,152.03
2023-02-21T23:37:43.149Z,140.30
2023-02-21T23:40:17.201Z,135.95
2023-02-21T23:42:49.485Z,158.35
2023-02-21T23:45:23.174Z,150.60
2023-02-21T23:47:55.401Z,196.77
2023-02-21T23:50:31.651Z,194.82
2023-02-21T23:53:01.648Z,192.07
2023-02-21T23:55:35.659Z,200.82
2023-02-21T23:58:08.830Z,208.20
